Time;durP1;ratioP1;P1;durP2;ratioP2;P2;SDS_P1;SDS_P2;PMS_P1;PMS_P2;Temp;Humidity;BMP_temperature;BMP_pressure;BME280_temperature;BME280_humidity;BME280_pressure;Samples;Min_cycle;Max_cycle;Signal;HPM_P1;HPM_P2
2022/06/11 00:01:42;;;;;;;4.03;3.60;;;;;;;;;;5052772;28;20451;-59
2022/06/11 00:04:11;;;;;;;4.60;3.47;;;;;;;;;;5052725;28;20491;-60
2022/06/11 00:06:41;;;;;;;4.10;3.70;;;;;;;;;;5052748;28;20476;-59
2022/06/11 00:09:10;;;;;;;5.33;4.83;;;;;;;;;;5052884;28;20455;-59
2022/06/11 00:11:37;;;;;;;4.30;3.90;;;;;;;;;;5052737;28;20539;-59
2022/06/11 00:14:05;;;;;;;5.27;3.50;;;;;;;;;;5052566;28;21020;-59
2022/06/11 00:16:32;;;;;;;5.03;3.63;;;;;;;;;;5052832;28;20547;-59
2022/06/11 00:18:59;;;;;;;4.50;4.10;;;;;;;;;;5052577;28;20458;-59
2022/06/11 00:21:27;;;;;;;5.00;3.33;;;;;;;;;;5052702;28;20452;-59
2022/06/11 00:23:54;;;;;;;5.07;3.90;;;;;;;;;;5052677;28;20458;-59
2022/06/11 00:26:23;;;;;;;4.37;4.07;;;;;;;;;;5052573;28;20448;-59
2022/06/11 00:28:51;;;;;;;8.57;7.73;;;;;;;;;;5052549;28;20452;-59
2022/06/11 00:31:18;;;;;;;6.67;4.90;;;;;;;;;;5052425;28;20448;-59
2022/06/11 00:33:45;;;;;;;4.80;4.07;;;;;;;;;;5052595;28;20792;-59
2022/06/11 00:36:12;;;;;;;4.20;3.73;;;;;;;;;;5052599;28;20448;-59
2022/06/11 00:38:40;;;;;;;4.80;3.77;;;;;;;;;;5052548;28;20840;-59
2022/06/11 00:41:07;;;;;;;5.10;4.70;;;;;;;;;;5052404;28;20543;-59
2022/06/11 00:43:37;;;;;;;8.23;4.70;;;;;;;;;;5054403;28;20519;-60
2022/06/11 00:46:19;;;;;;;6.80;5.30;;;;;;;;;;5056175;28;20456;-59
2022/06/11 00:48:46;;;;;;;6.63;4.53;;;;;;;;;;5056546;28;20452;-59
2022/06/11 00:51:14;;;;;;;5.63;4.80;;;;;;;;;;5055998;28;20962;-59
2022/06/11 00:53:42;;;;;;;4.70;4.30;;;;;;;;;;5056425;28;20448;-59
2022/06/11 00:56:13;;;;;;;6.97;4.40;;;;;;;;;;5056078;28;20537;-59
2022/06/11 00:58:43;;;;;;;4.40;4.10;;;;;;;;;;5055889;28;20458;-59
2022/06/11 01:01:10;;;;;;;4.60;4.20;;;;;;;;;;5056013;28;20539;-59
2022/06/11 01:03:38;;;;;;;4.33;3.87;;;;;;;;;;5055769;28;20535;-59
2022/06/11 01:06:10;;;;;;;9.70;5.60;;;;;;;;;;5055870;28;20464;-59
2022/06/11 01:08:50;;;;;;;9.30;8.50;;;;;;;;;;5055833;28;20804;-59
2022/06/11 01:11:29;;;;;;;6.10;5.27;;;;;;;;;;5055696;28;21018;-59
2022/06/11 01:14:05;;;;;;;5.47;4.97;;;;;;;;;;5055712;28;20543;-59
2022/06/11 01:16:36;;;;;;;5.20;4.43;;;;;;;;;;5055728;28;20483;-59
2022/06/11 01:19:12;;;;;;;7.00;5.80;;;;;;;;;;5055604;28;20448;-59
2022/06/11 01:21:44;;;;;;;14.57;13.13;;;;;;;;;;5055749;28;20458;-59
2022/06/11 01:24:20;;;;;;;12.63;11.57;;;;;;;;;;5055433;28;20940;-59
2022/06/11 01:27:04;;;;;;;14.93;11.87;;;;;;;;;;5055550;28;20447;-59
2022/06/11 01:29:46;;;;;;;7.30;5.50;;;;;;;;;;5055486;28;20488;-59
2022/06/11 01:32:16;;;;;;;7.53;6.70;;;;;;;;;;5055504;28;20463;-59
2022/06/11 01:34:49;;;;;;;7.87;6.17;;;;;;;;;;5055303;28;20486;-59
2022/06/11 01:37:19;;;;;;;11.47;7.90;;;;;;;;;;5055291;28;20463;-59
2022/06/11 01:39:50;;;;;;;13.67;9.30;;;;;;;;;;5055156;28;20455;-59
2022/06/11 01:42:20;;;;;;;23.87;20.50;;;;;;;;;;5055039;28;20458;-59
2022/06/11 01:44:59;;;;;;;30.67;25.40;;;;;;;;;;5054927;28;20487;-59
2022/06/11 01:47:26;;;;;;;16.20;9.27;;;;;;;;;;5055226;28;20452;-59
2022/06/11 01:49:53;;;;;;;8.10;7.30;;;;;;;;;;5055123;28;20448;-59
2022/06/11 01:52:26;;;;;;;9.07;8.13;;;;;;;;;;5055007;28;20454;-59
2022/06/11 01:55:00;;;;;;;6.40;5.80;;;;;;;;;;5054315;28;20479;-59
2022/06/11 01:57:37;;;;;;;10.83;7.70;;;;;;;;;;5055024;28;20455;-59
2022/06/11 02:00:11;;;;;;;9.53;7.80;;;;;;;;;;5054892;28;20531;-59
2022/06/11 02:02:45;;;;;;;7.27;6.60;;;;;;;;;;5054806;28;20445;-59
2022/06/11 02:05:15;;;;;;;6.33;5.63;;;;;;;;;;5054611;28;20467;-59
2022/06/11 02:07:44;;;;;;;13.07;9.37;;;;;;;;;;5054758;28;20455;-59
2022/06/11 02:10:14;;;;;;;13.77;9.00;;;;;;;;;;5054750;28;20859;-59
2022/06/11 02:12:43;;;;;;;5.90;5.30;;;;;;;;;;5054689;28;20455;-59
2022/06/11 02:15:15;;;;;;;6.03;5.43;;;;;;;;;;5054473;28;20480;-59
2022/06/11 02:17:43;;;;;;;5.70;5.17;;;;;;;;;;5054482;28;20523;-59
2022/06/11 02:20:12;;;;;;;6.63;5.67;;;;;;;;;;5054593;28;20487;-59
2022/06/11 02:22:42;;;;;;;8.83;5.30;;;;;;;;;;5054344;28;20544;-59
2022/06/11 02:25:12;;;;;;;5.47;5.07;;;;;;;;;;5054450;28;20821;-59
2022/06/11 02:27:41;;;;;;;6.27;5.43;;;;;;;;;;5054334;28;20663;-59
2022/06/11 02:30:10;;;;;;;5.40;4.90;;;;;;;;;;5054093;28;20448;-59
2022/06/11 02:32:40;;;;;;;4.50;4.20;;;;;;;;;;5054244;28;20452;-59
2022/06/11 02:35:08;;;;;;;6.17;5.13;;;;;;;;;;5054152;28;20902;-59
2022/06/11 02:37:36;;;;;;;5.30;4.80;;;;;;;;;;5054143;28;20862;-59
2022/06/11 02:40:10;;;;;;;4.97;4.67;;;;;;;;;;5054115;28;20815;-59
2022/06/11 02:42:37;;;;;;;6.20;5.70;;;;;;;;;;5053806;28;20452;-59
2022/06/11 02:45:04;;;;;;;5.20;4.90;;;;;;;;;;5054128;28;20452;-59
2022/06/11 02:47:31;;;;;;;5.87;5.37;;;;;;;;;;5054025;28;20781;-59
2022/06/11 02:50:00;;;;;;;6.93;5.97;;;;;;;;;;5053938;28;20490;-59
2022/06/11 02:52:27;;;;;;;5.67;5.17;;;;;;;;;;5053896;28;20441;-59
2022/06/11 02:54:54;;;;;;;5.90;5.33;;;;;;;;;;5053797;28;21046;-59
2022/06/11 02:57:22;;;;;;;5.40;4.90;;;;;;;;;;5053561;28;20804;-59
2022/06/11 02:59:50;;;;;;;5.50;5.10;;;;;;;;;;5053872;28;20544;-60
2022/06/11 03:02:17;;;;;;;5.53;5.13;;;;;;;;;;5053773;28;20453;-59
2022/06/11 03:04:44;;;;;;;12.53;5.63;;;;;;;;;;5053356;28;20455;-59
2022/06/11 03:07:13;;;;;;;5.00;4.60;;;;;;;;;;5053022;28;20448;-59
2022/06/11 03:09:42;;;;;;;6.50;5.90;;;;;;;;;;5053370;28;20464;-59
2022/06/11 03:12:09;;;;;;;6.50;5.70;;;;;;;;;;5053625;28;20543;-60
2022/06/11 03:14:37;;;;;;;7.27;5.83;;;;;;;;;;5053455;28;20523;-60
2022/06/11 03:17:04;;;;;;;5.53;5.13;;;;;;;;;;5053467;28;20448;-60
2022/06/11 03:19:31;;;;;;;7.27;6.63;;;;;;;;;;5053355;28;20470;-60
2022/06/11 03:21:58;;;;;;;6.77;6.10;;;;;;;;;;5053274;28;20452;-60
2022/06/11 03:24:27;;;;;;;6.70;6.23;;;;;;;;;;5053123;28;20971;-59
2022/06/11 03:26:54;;;;;;;6.73;6.10;;;;;;;;;;5053355;28;20448;-59
2022/06/11 03:29:21;;;;;;;6.60;6.00;;;;;;;;;;5053530;28;20847;-59
2022/06/11 03:31:48;;;;;;;7.43;6.83;;;;;;;;;;5053230;28;20530;-60
2022/06/11 03:34:16;;;;;;;6.70;6.20;;;;;;;;;;5053075;28;20449;-60
2022/06/11 03:36:43;;;;;;;6.50;5.90;;;;;;;;;;5052951;28;20983;-60
2022/06/11 03:39:12;;;;;;;6.93;5.87;;;;;;;;;;5053209;28;20448;-59
2022/06/11 03:41:41;;;;;;;6.60;6.10;;;;;;;;;;5052982;28;20955;-59
2022/06/11 03:44:08;;;;;;;7.37;6.77;;;;;;;;;;5052801;28;20476;-60
2022/06/11 03:46:35;;;;;;;7.20;6.50;;;;;;;;;;5053003;28;20452;-60
2022/06/11 03:49:02;;;;;;;7.70;7.00;;;;;;;;;;5053004;28;20474;-59
2022/06/11 03:51:29;;;;;;;6.70;6.20;;;;;;;;;;5052790;28;20455;-59
2022/06/11 03:53:56;;;;;;;7.03;6.43;;;;;;;;;;5053028;28;20448;-59
2022/06/11 03:56:24;;;;;;;6.90;6.33;;;;;;;;;;5052829;28;20938;-59
2022/06/11 03:58:53;;;;;;;7.47;6.87;;;;;;;;;;5052898;28;20423;-59
2022/06/11 04:01:20;;;;;;;6.67;5.90;;;;;;;;;;5052813;28;20475;-59
2022/06/11 04:03:49;;;;;;;6.93;6.30;;;;;;;;;;5052768;28;20452;-59
2022/06/11 04:06:17;;;;;;;7.50;6.80;;;;;;;;;;5052912;28;20484;-59
2022/06/11 04:08:44;;;;;;;7.53;7.00;;;;;;;;;;5052879;28;20448;-59
2022/06/11 04:11:11;;;;;;;6.77;6.27;;;;;;;;;;5052832;28;20452;-59
2022/06/11 04:13:39;;;;;;;9.17;6.70;;;;;;;;;;5052744;28;20448;-59
2022/06/11 04:16:08;;;;;;;8.93;6.70;;;;;;;;;;5052590;28;20484;-59
2022/06/11 04:18:36;;;;;;;8.07;7.30;;;;;;;;;;5056525;28;20448;-59
2022/06/11 04:21:04;;;;;;;7.20;6.50;;;;;;;;;;5056762;28;20538;-60
2022/06/11 04:23:31;;;;;;;6.77;6.27;;;;;;;;;;5056721;28;20443;-59
2022/06/11 04:25:58;;;;;;;8.00;7.40;;;;;;;;;;5056645;28;20539;-59
2022/06/11 04:28:25;;;;;;;7.80;7.13;;;;;;;;;;5056589;28;20472;-59
2022/06/11 04:30:52;;;;;;;7.50;7.00;;;;;;;;;;5056373;28;20448;-59
2022/06/11 04:33:21;;;;;;;7.17;6.50;;;;;;;;;;5056646;28;20446;-59
2022/06/11 04:35:48;;;;;;;7.17;6.67;;;;;;;;;;5056538;28;20534;-59
2022/06/11 04:38:15;;;;;;;6.83;6.33;;;;;;;;;;5056249;28;20970;-59
2022/06/11 04:40:43;;;;;;;7.10;6.50;;;;;;;;;;5056345;28;20591;-59
2022/06/11 04:43:10;;;;;;;7.80;6.30;;;;;;;;;;5056068;28;20483;-59
2022/06/11 04:45:37;;;;;;;7.40;6.33;;;;;;;;;;5056201;28;20462;-59
2022/06/11 04:48:05;;;;;;;6.50;5.90;;;;;;;;;;5056325;28;20448;-59
2022/06/11 04:50:33;;;;;;;6.47;5.70;;;;;;;;;;5056327;28;20781;-60
2022/06/11 04:53:00;;;;;;;6.17;5.77;;;;;;;;;;5056141;28;20470;-59
2022/06/11 04:55:27;;;;;;;10.60;6.30;;;;;;;;;;5055922;28;20843;-60
2022/06/11 04:57:54;;;;;;;6.47;5.97;;;;;;;;;;5055890;28;20487;-60
2022/06/11 05:00:23;;;;;;;7.23;6.53;;;;;;;;;;5055869;28;20452;-59
2022/06/11 05:02:51;;;;;;;7.40;6.70;;;;;;;;;;5056037;28;20487;-59
2022/06/11 05:05:18;;;;;;;7.70;7.00;;;;;;;;;;5055937;28;20454;-59
2022/06/11 05:07:46;;;;;;;6.83;6.33;;;;;;;;;;5055768;28;20838;-60
2022/06/11 05:10:14;;;;;;;5.53;5.13;;;;;;;;;;5055778;28;20539;-59
2022/06/11 05:12:41;;;;;;;7.70;6.90;;;;;;;;;;5055510;28;20452;-60
2022/06/11 05:15:09;;;;;;;8.77;5.60;;;;;;;;;;5055828;28;20452;-60
2022/06/11 05:17:36;;;;;;;5.90;5.40;;;;;;;;;;5055684;28;20448;-60
2022/06/11 05:20:03;;;;;;;7.07;5.80;;;;;;;;;;5055692;28;20448;-60
2022/06/11 05:22:30;;;;;;;6.90;6.20;;;;;;;;;;5055641;28;20454;-60
2022/06/11 05:24:58;;;;;;;7.83;6.50;;;;;;;;;;5055501;28;20448;-60
2022/06/11 05:27:25;;;;;;;6.17;5.03;;;;;;;;;;5055363;28;20466;-59
2022/06/11 05:29:54;;;;;;;8.30;5.87;;;;;;;;;;5054732;28;20449;-60
2022/06/11 05:32:21;;;;;;;7.83;5.77;;;;;;;;;;5055354;28;20455;-59
2022/06/11 05:34:48;;;;;;;5.30;4.83;;;;;;;;;;5055288;28;20487;-60
2022/06/11 05:37:15;;;;;;;6.13;4.67;;;;;;;;;;5055098;28;20510;-59
2022/06/11 05:39:44;;;;;;;5.13;4.30;;;;;;;;;;5055044;28;20448;-60
2022/06/11 05:42:12;;;;;;;4.07;3.80;;;;;;;;;;5055290;28;20452;-60
2022/06/11 05:44:39;;;;;;;4.03;3.60;;;;;;;;;;5054960;28;20480;-60
2022/06/11 05:47:06;;;;;;;5.50;4.60;;;;;;;;;;5055070;28;20448;-59
2022/06/11 05:49:35;;;;;;;4.30;3.90;;;;;;;;;;5055087;28;20456;-59
2022/06/11 05:52:07;;;;;;;4.37;3.67;;;;;;;;;;5054901;28;20924;-60
2022/06/11 05:54:36;;;;;;;3.97;3.50;;;;;;;;;;5055136;28;20437;-60
2022/06/11 05:57:04;;;;;;;4.73;3.40;;;;;;;;;;5054882;28;20512;-60
2022/06/11 05:59:35;;;;;;;5.20;3.57;;;;;;;;;;5054886;28;20448;-60
2022/06/11 06:02:08;;;;;;;3.67;3.33;;;;;;;;;;5054760;28;20512;-60
2022/06/11 06:04:35;;;;;;;3.67;3.27;;;;;;;;;;5054576;28;20932;-60
2022/06/11 06:07:02;;;;;;;4.37;3.97;;;;;;;;;;5054914;28;20459;-60
2022/06/11 06:09:29;;;;;;;4.27;3.47;;;;;;;;;;5054771;28;20448;-60
2022/06/11 06:11:56;;;;;;;3.30;3.00;;;;;;;;;;5054590;28;20455;-60
2022/06/11 06:14:23;;;;;;;3.20;2.70;;;;;;;;;;5054452;28;20826;-60
2022/06/11 06:16:51;;;;;;;2.73;2.53;;;;;;;;;;5054434;28;20486;-60
2022/06/11 06:19:18;;;;;;;6.70;4.17;;;;;;;;;;5054352;28;20454;-59
2022/06/11 06:21:45;;;;;;;3.27;3.07;;;;;;;;;;5054533;28;20452;-59
2022/06/11 06:24:12;;;;;;;3.30;2.40;;;;;;;;;;5054424;28;20454;-59
2022/06/11 06:26:40;;;;;;;6.40;2.40;;;;;;;;;;5054404;28;20448;-59
2022/06/11 06:29:07;;;;;;;5.27;2.37;;;;;;;;;;5054347;28;20448;-59
2022/06/11 06:31:34;;;;;;;4.00;2.80;;;;;;;;;;5054153;28;20466;-59
2022/06/11 06:34:02;;;;;;;5.80;2.43;;;;;;;;;;5054084;28;20455;-60
2022/06/11 06:36:30;;;;;;;4.10;2.20;;;;;;;;;;5053849;28;20579;-60
2022/06/11 06:38:57;;;;;;;4.47;3.30;;;;;;;;;;5054012;28;20448;-60
2022/06/11 06:41:24;;;;;;;3.27;2.53;;;;;;;;;;5053945;28;20456;-60
2022/06/11 06:43:51;;;;;;;3.50;2.40;;;;;;;;;;5053694;28;20851;-60
2022/06/11 06:46:18;;;;;;;2.53;2.30;;;;;;;;;;5053680;28;20460;-60
2022/06/11 06:48:45;;;;;;;3.63;2.17;;;;;;;;;;5053837;28;20449;-60
2022/06/11 06:51:14;;;;;;;2.23;2.10;;;;;;;;;;5053810;28;20448;-60
2022/06/11 06:53:42;;;;;;;3.33;2.37;;;;;;;;;;5053796;28;20794;-60
2022/06/11 06:56:09;;;;;;;3.00;2.13;;;;;;;;;;5053572;28;20484;-60
2022/06/11 06:58:36;;;;;;;4.17;2.80;;;;;;;;;;5053615;28;20494;-60
2022/06/11 07:01:04;;;;;;;3.33;2.47;;;;;;;;;;5053414;28;20459;-60
2022/06/11 07:03:31;;;;;;;2.90;2.57;;;;;;;;;;5053585;28;20454;-60
2022/06/11 07:05:58;;;;;;;3.10;2.80;;;;;;;;;;5053570;28;20492;-60
2022/06/11 07:08:27;;;;;;;4.70;2.50;;;;;;;;;;5053423;28;20458;-60
2022/06/11 07:10:55;;;;;;;3.40;2.10;;;;;;;;;;5053329;28;20944;-60
2022/06/11 07:13:22;;;;;;;3.80;2.17;;;;;;;;;;5053228;28;20539;-60
2022/06/11 07:15:52;;;;;;;3.23;2.30;;;;;;;;;;5053328;28;20543;-60
2022/06/11 07:18:20;;;;;;;4.80;2.20;;;;;;;;;;5053121;28;20921;-60
2022/06/11 07:20:48;;;;;;;2.60;1.67;;;;;;;;;;5053242;28;20789;-60
2022/06/11 07:23:17;;;;;;;2.27;2.07;;;;;;;;;;5053253;28;20448;-60
2022/06/11 07:25:47;;;;;;;3.43;2.20;;;;;;;;;;5053064;28;20459;-60
2022/06/11 07:28:17;;;;;;;3.83;2.40;;;;;;;;;;5053064;28;20455;-60
2022/06/11 07:30:45;;;;;;;3.47;2.10;;;;;;;;;;5053241;28;20452;-60
2022/06/11 07:33:13;;;;;;;3.80;2.20;;;;;;;;;;5053040;28;20447;-60
2022/06/11 07:35:40;;;;;;;4.53;2.33;;;;;;;;;;5052931;28;20760;-60
2022/06/11 07:38:09;;;;;;;3.57;2.00;;;;;;;;;;5052685;28;20487;-60
2022/06/11 07:40:36;;;;;;;6.53;2.13;;;;;;;;;;5052686;28;20456;-60
2022/06/11 07:43:06;;;;;;;3.33;2.43;;;;;;;;;;5052752;28;20892;-60
2022/06/11 07:45:33;;;;;;;2.63;2.10;;;;;;;;;;5052892;28;20448;-60
2022/06/11 07:48:00;;;;;;;2.77;1.90;;;;;;;;;;5052744;28;20539;-60
2022/06/11 07:50:29;;;;;;;2.47;2.27;;;;;;;;;;5052722;28;20445;-60
2022/06/11 07:52:56;;;;;;;2.43;1.80;;;;;;;;;;5052228;28;20843;-60
2022/06/11 07:55:24;;;;;;;4.27;1.93;;;;;;;;;;5052855;28;20451;-60
2022/06/11 07:57:51;;;;;;;5.27;2.00;;;;;;;;;;5052840;28;20875;-60
2022/06/11 08:00:21;;;;;;;5.73;2.13;;;;;;;;;;5052759;28;20448;-60
2022/06/11 08:02:48;;;;;;;2.73;1.90;;;;;;;;;;5052719;28;20574;-60
2022/06/11 08:05:15;;;;;;;4.60;1.70;;;;;;;;;;5052682;28;20543;-60
2022/06/11 08:07:42;;;;;;;2.17;1.97;;;;;;;;;;5052387;28;20777;-60
2022/06/11 08:10:09;;;;;;;2.10;1.90;;;;;;;;;;5052724;28;20448;-60
2022/06/11 08:12:36;;;;;;;2.37;1.90;;;;;;;;;;5052648;28;20510;-60
2022/06/11 08:15:03;;;;;;;2.93;1.90;;;;;;;;;;5052657;28;20455;-60
2022/06/11 08:17:33;;;;;;;2.90;1.70;;;;;;;;;;5052490;28;20484;-60
2022/06/11 08:20:00;;;;;;;2.60;1.90;;;;;;;;;;5052422;28;20451;-60
2022/06/11 08:22:27;;;;;;;2.93;2.07;;;;;;;;;;5052672;28;20451;-60
2022/06/11 08:24:54;;;;;;;2.80;1.80;;;;;;;;;;5052555;28;20444;-60
2022/06/11 08:27:21;;;;;;;3.20;2.07;;;;;;;;;;5052573;28;20490;-60
2022/06/11 08:29:48;;;;;;;2.00;1.53;;;;;;;;;;5052540;28;20808;-60
2022/06/11 08:32:15;;;;;;;2.13;1.77;;;;;;;;;;5052468;28;20451;-60
2022/06/11 08:34:45;;;;;;;3.63;2.30;;;;;;;;;;5052345;28;20542;-60
2022/06/11 08:37:12;;;;;;;4.10;1.87;;;;;;;;;;5052424;28;20484;-60
2022/06/11 08:39:39;;;;;;;4.13;2.07;;;;;;;;;;5052470;28;20459;-60
2022/06/11 08:42:08;;;;;;;3.27;1.80;;;;;;;;;;5052401;28;20449;-60
2022/06/11 08:44:35;;;;;;;2.93;1.70;;;;;;;;;;5052195;28;20986;-60
2022/06/11 08:47:03;;;;;;;3.77;1.93;;;;;;;;;;5052285;28;20458;-61
2022/06/11 08:49:35;;;;;;;4.70;1.90;;;;;;;;;;5052279;28;20487;-60
2022/06/11 08:52:06;;;;;;;4.17;2.10;;;;;;;;;;5052554;28;20453;-60
2022/06/11 08:54:35;;;;;;;2.60;1.70;;;;;;;;;;5052682;28;20448;-60
2022/06/11 08:57:06;;;;;;;4.93;1.80;;;;;;;;;;5052139;28;20482;-60
2022/06/11 08:59:48;;;;;;;4.60;1.93;;;;;;;;;;5052223;28;20948;-61
2022/06/11 09:02:32;;;;;;;6.43;2.20;;;;;;;;;;5052356;28;20453;-60
2022/06/11 09:05:15;;;;;;;1.77;1.67;;;;;;;;;;5055063;28;20455;-60
2022/06/11 09:07:52;;;;;;;2.10;1.87;;;;;;;;;;5055877;28;20943;-60
2022/06/11 09:10:26;;;;;;;2.30;1.73;;;;;;;;;;5055905;28;20535;-60
2022/06/11 09:13:00;;;;;;;1.50;1.40;;;;;;;;;;5056231;28;20458;-60
2022/06/11 09:15:32;;;;;;;2.40;1.80;;;;;;;;;;5055995;28;20470;-61
2022/06/11 09:18:04;;;;;;;3.00;1.90;;;;;;;;;;5055757;28;20527;-61
2022/06/11 09:20:37;;;;;;;3.93;1.70;;;;;;;;;;5055532;28;20452;-60
2022/06/11 09:23:13;;;;;;;3.20;1.77;;;;;;;;;;5055490;28;20944;-61
2022/06/11 09:25:46;;;;;;;2.40;1.70;;;;;;;;;;5055707;28;20855;-60
2022/06/11 09:28:20;;;;;;;3.10;1.60;;;;;;;;;;5055545;28;20596;-60
2022/06/11 09:30:53;;;;;;;3.27;1.57;;;;;;;;;;5055345;28;20448;-60
2022/06/11 09:33:21;;;;;;;1.67;1.20;;;;;;;;;;5055694;28;20443;-60
2022/06/11 09:35:51;;;;;;;2.30;1.53;;;;;;;;;;5055416;28;20890;-60
2022/06/11 09:38:27;;;;;;;2.70;2.50;;;;;;;;;;5055268;28;20488;-60
2022/06/11 09:40:58;;;;;;;5.20;3.73;;;;;;;;;;5055192;28;20479;-60
2022/06/11 09:43:33;;;;;;;2.13;1.93;;;;;;;;;;5054922;28;20567;-60
2022/06/11 09:46:05;;;;;;;3.83;1.80;;;;;;;;;;5055250;28;20448;-60
2022/06/11 09:48:39;;;;;;;3.80;1.30;;;;;;;;;;5055203;28;20459;-60
2022/06/11 09:51:09;;;;;;;2.80;1.30;;;;;;;;;;5055161;28;20510;-60
2022/06/11 09:53:43;;;;;;;2.23;1.23;;;;;;;;;;5055062;28;20459;-60
2022/06/11 09:56:14;;;;;;;2.10;1.50;;;;;;;;;;5054945;28;20452;-60
2022/06/11 09:58:47;;;;;;;4.33;1.60;;;;;;;;;;5054896;28;20897;-60
2022/06/11 10:01:15;;;;;;;1.80;1.70;;;;;;;;;;5054937;28;20948;-60
2022/06/11 10:03:45;;;;;;;4.10;1.83;;;;;;;;;;5054824;28;20448;-60
2022/06/11 10:06:14;;;;;;;3.17;1.87;;;;;;;;;;5054806;28;20511;-61
2022/06/11 10:08:47;;;;;;;3.03;1.60;;;;;;;;;;5054530;28;20943;-60
2022/06/11 10:11:18;;;;;;;2.03;1.20;;;;;;;;;;5054869;28;20539;-60
2022/06/11 10:13:48;;;;;;;2.30;1.83;;;;;;;;;;5054764;28;20453;-60
2022/06/11 10:16:24;;;;;;;3.73;1.93;;;;;;;;;;5054263;28;20540;-60
2022/06/11 10:18:52;;;;;;;2.80;1.57;;;;;;;;;;5054274;28;20912;-60
2022/06/11 10:21:19;;;;;;;10.43;1.87;;;;;;;;;;5054583;28;20448;-60
2022/06/11 10:23:50;;;;;;;4.40;1.30;;;;;;;;;;5054480;28;20816;-60
2022/06/11 10:26:22;;;;;;;1.70;1.30;;;;;;;;;;5054367;28;20476;-60
2022/06/11 10:28:52;;;;;;;2.10;1.60;;;;;;;;;;5054382;28;20862;-60
2022/06/11 10:31:21;;;;;;;2.67;1.60;;;;;;;;;;5054177;28;20864;-60
2022/06/11 10:33:50;;;;;;;4.10;1.40;;;;;;;;;;5054384;28;20862;-61
2022/06/11 10:36:20;;;;;;;1.93;1.57;;;;;;;;;;5054300;28;20859;-60
2022/06/11 10:38:51;;;;;;;3.00;1.50;;;;;;;;;;5053872;28;21018;-60
2022/06/11 10:41:22;;;;;;;1.30;1.20;;;;;;;;;;5054035;28;20543;-60
2022/06/11 10:43:53;;;;;;;1.40;1.30;;;;;;;;;;5053768;28;20476;-60
2022/06/11 10:46:20;;;;;;;3.20;1.20;;;;;;;;;;5054224;28;20539;-60
2022/06/11 10:48:47;;;;;;;1.83;1.47;;;;;;;;;;5054046;28;20455;-60
2022/06/11 10:51:16;;;;;;;2.67;1.37;;;;;;;;;;5053783;28;20454;-60
2022/06/11 10:53:46;;;;;;;2.10;1.40;;;;;;;;;;5053856;28;20543;-60
2022/06/11 10:56:18;;;;;;;2.20;1.50;;;;;;;;;;5053834;28;20459;-61
2022/06/11 10:58:47;;;;;;;2.03;1.40;;;;;;;;;;5053872;28;20480;-60
2022/06/11 11:01:18;;;;;;;2.27;1.50;;;;;;;;;;5053778;28;20455;-60
2022/06/11 11:03:47;;;;;;;2.03;1.30;;;;;;;;;;5053602;28;20448;-59
2022/06/11 11:06:18;;;;;;;1.00;0.90;;;;;;;;;;5053539;28;20556;-59
2022/06/11 11:08:52;;;;;;;2.47;1.30;;;;;;;;;;5053575;28;20459;-59
2022/06/11 11:11:21;;;;;;;2.40;1.30;;;;;;;;;;5053844;28;20448;-60
2022/06/11 11:13:48;;;;;;;2.93;1.60;;;;;;;;;;5053590;28;20449;-59
2022/06/11 11:16:19;;;;;;;2.30;1.17;;;;;;;;;;5053325;28;20444;-59
2022/06/11 11:18:51;;;;;;;1.43;1.00;;;;;;;;;;5053376;28;20886;-59
2022/06/11 11:21:20;;;;;;;2.10;1.30;;;;;;;;;;5053298;28;20452;-59
2022/06/11 11:23:50;;;;;;;3.10;1.20;;;;;;;;;;5053407;28;20448;-59
2022/06/11 11:26:20;;;;;;;2.10;1.10;;;;;;;;;;5052667;28;20456;-59
2022/06/11 11:28:56;;;;;;;1.20;1.00;;;;;;;;;;5053256;28;20490;-59
2022/06/11 11:31:25;;;;;;;1.23;1.13;;;;;;;;;;5053227;28;20890;-59
2022/06/11 11:33:59;;;;;;;1.50;1.43;;;;;;;;;;5053053;28;20452;-60
2022/06/11 11:36:27;;;;;;;1.80;1.70;;;;;;;;;;5053337;28;20534;-59
2022/06/11 11:39:02;;;;;;;3.03;1.20;;;;;;;;;;5053042;28;20522;-59
2022/06/11 11:41:34;;;;;;;1.60;1.03;;;;;;;;;;5053025;28;20448;-59
2022/06/11 11:44:02;;;;;;;1.80;1.37;;;;;;;;;;5052898;28;20566;-59
2022/06/11 11:46:33;;;;;;;2.63;1.30;;;;;;;;;;5052886;28;20556;-59
2022/06/11 11:49:02;;;;;;;1.57;1.47;;;;;;;;;;5053055;28;20436;-59
2022/06/11 11:51:34;;;;;;;2.00;1.27;;;;;;;;;;5052786;28;20520;-59
2022/06/11 11:54:02;;;;;;;3.43;1.53;;;;;;;;;;5052937;28;20452;-59
2022/06/11 11:56:31;;;;;;;3.20;1.20;;;;;;;;;;5052807;28;20574;-59
2022/06/11 11:59:00;;;;;;;2.07;1.20;;;;;;;;;;5052669;28;20490;-60
2022/06/11 12:01:30;;;;;;;2.33;1.10;;;;;;;;;;5052946;28;20484;-59
2022/06/11 12:04:06;;;;;;;1.27;1.17;;;;;;;;;;5052813;28;20448;-59
2022/06/11 12:06:35;;;;;;;1.40;1.10;;;;;;;;;;5052867;28;20451;-59
2022/06/11 12:09:03;;;;;;;3.10;1.23;;;;;;;;;;5052706;28;20463;-59
2022/06/11 12:11:35;;;;;;;1.50;1.10;;;;;;;;;;5052514;28;20448;-59
2022/06/11 12:14:03;;;;;;;1.30;1.07;;;;;;;;;;5052521;28;20449;-59
2022/06/11 12:16:33;;;;;;;1.20;1.10;;;;;;;;;;5052741;28;20457;-59
2022/06/11 12:19:03;;;;;;;1.50;1.00;;;;;;;;;;5052577;28;20566;-59
2022/06/11 12:21:34;;;;;;;4.53;1.93;;;;;;;;;;5052639;28;20447;-59
2022/06/11 12:24:02;;;;;;;1.87;1.30;;;;;;;;;;5052535;28;20987;-59
2022/06/11 12:26:32;;;;;;;2.43;1.03;;;;;;;;;;5052656;28;20502;-59
2022/06/11 12:29:00;;;;;;;2.33;1.30;;;;;;;;;;5052762;28;20540;-59
2022/06/11 12:31:28;;;;;;;3.57;1.10;;;;;;;;;;5052584;28;20444;-60
2022/06/11 12:33:56;;;;;;;1.20;1.10;;;;;;;;;;5052336;28;20932;-60
2022/06/11 12:36:41;;;;;;;2.00;1.30;;;;;;;;;;5052416;28;20977;-60
2022/06/11 12:39:11;;;;;;;1.20;1.10;;;;;;;;;;5055693;28;20483;-60
2022/06/11 12:41:43;;;;;;;2.07;1.10;;;;;;;;;;5056556;28;20946;-60
2022/06/11 12:44:26;;;;;;;1.60;1.30;;;;;;;;;;5056142;28;20570;-60
2022/06/11 12:46:56;;;;;;;3.80;1.40;;;;;;;;;;5056263;28;20458;-60
2022/06/11 12:49:27;;;;;;;1.97;1.10;;;;;;;;;;5056352;28;20534;-60
2022/06/11 12:52:03;;;;;;;1.57;1.20;;;;;;;;;;5056384;28;20494;-60
2022/06/11 12:54:35;;;;;;;1.23;1.07;;;;;;;;;;5056180;28;20447;-60
2022/06/11 12:57:07;;;;;;;2.90;1.23;;;;;;;;;;5056070;28;20539;-60
2022/06/11 12:59:52;;;;;;;1.30;1.20;;;;;;;;;;5055879;28;20484;-60
2022/06/11 13:02:24;;;;;;;1.47;1.30;;;;;;;;;;5055807;28;21031;-60
2022/06/11 13:05:09;;;;;;;1.10;1.00;;;;;;;;;;5055930;28;20452;-60
2022/06/11 13:07:42;;;;;;;3.40;1.20;;;;;;;;;;5048913;28;20452;-60
2022/06/11 13:10:16;;;;;;;2.60;1.30;;;;;;;;;;5056045;28;20459;-60
2022/06/11 13:12:53;;;;;;;2.10;1.43;;;;;;;;;;5055888;28;20875;-60
2022/06/11 13:15:35;;;;;;;3.80;1.77;;;;;;;;;;5055837;28;20882;-60
2022/06/11 13:18:10;;;;;;;1.70;1.10;;;;;;;;;;5055578;28;20529;-60
2022/06/11 13:20:39;;;;;;;1.60;1.00;;;;;;;;;;5055842;28;20448;-60
2022/06/11 13:23:13;;;;;;;2.50;1.20;;;;;;;;;;5055776;28;20636;-60
2022/06/11 13:25:41;;;;;;;1.50;1.20;;;;;;;;;;5055546;28;20506;-60
2022/06/11 13:28:15;;;;;;;2.00;1.43;;;;;;;;;;5055514;28;20452;-60
2022/06/11 13:30:48;;;;;;;2.07;1.10;;;;;;;;;;5055384;28;20460;-60
2022/06/11 13:33:26;;;;;;;1.10;1.00;;;;;;;;;;5055597;28;20448;-60
2022/06/11 13:35:56;;;;;;;2.43;1.40;;;;;;;;;;5055483;28;20538;-60
2022/06/11 13:38:32;;;;;;;1.47;1.30;;;;;;;;;;5055232;28;20579;-60
2022/06/11 13:41:03;;;;;;;2.43;1.17;;;;;;;;;;5055140;28;20462;-60
2022/06/11 13:43:44;;;;;;;3.63;1.90;;;;;;;;;;5055167;28;20472;-60
2022/06/11 13:46:15;;;;;;;1.97;1.63;;;;;;;;;;5055278;28;20449;-60
2022/06/11 13:48:47;;;;;;;1.70;1.37;;;;;;;;;;5055206;28;20453;-60
2022/06/11 13:51:18;;;;;;;1.70;1.50;;;;;;;;;;5054542;28;20486;-60
2022/06/11 13:56:41;;;;;;;3.87;1.50;;;;;;;;;;5055033;28;20498;-60
2022/06/11 13:59:18;;;;;;;2.93;1.20;;;;;;;;;;5054847;28;20548;-60
2022/06/11 14:01:54;;;;;;;3.10;1.30;;;;;;;;;;5054695;28;20448;-60
2022/06/11 14:04:27;;;;;;;1.70;1.60;;;;;;;;;;5054890;28;20448;-60
2022/06/11 14:06:55;;;;;;;2.07;1.60;;;;;;;;;;5054829;28;20464;-60
2022/06/11 14:12:32;;;;;;;1.50;1.23;;;;;;;;;;5054599;28;20655;-60
2022/06/11 14:15:14;;;;;;;2.27;1.40;;;;;;;;;;5054889;28;20459;-60
2022/06/11 14:17:43;;;;;;;2.13;1.50;;;;;;;;;;5054750;28;20468;-60
2022/06/11 14:20:22;;;;;;;3.10;1.73;;;;;;;;;;5054301;28;20483;-59
2022/06/11 14:22:50;;;;;;;1.73;1.53;;;;;;;;;;5054311;28;20454;-59
2022/06/11 14:25:38;;;;;;;1.73;1.40;;;;;;;;;;5054290;28;20970;-59
2022/06/11 14:28:24;;;;;;;4.93;1.60;;;;;;;;;;5054372;28;20448;-59
2022/06/11 14:31:06;;;;;;;1.60;1.50;;;;;;;;;;5054187;28;20448;-59
2022/06/11 14:33:34;;;;;;;2.30;1.93;;;;;;;;;;5054317;28;20863;-60
2022/06/11 14:36:04;;;;;;;3.53;1.70;;;;;;;;;;5054244;28;20449;-59
2022/06/11 14:38:41;;;;;;;2.07;1.87;;;;;;;;;;5054217;28;20522;-59
2022/06/11 14:41:20;;;;;;;4.23;1.73;;;;;;;;;;5053970;28;21015;-59
2022/06/11 14:44:06;;;;;;;1.80;1.60;;;;;;;;;;5053786;28;20480;-59
2022/06/11 14:46:47;;;;;;;1.90;1.60;;;;;;;;;;5054102;28;20535;-59
2022/06/11 14:49:14;;;;;;;2.70;1.93;;;;;;;;;;5053807;28;20448;-59
2022/06/11 14:51:42;;;;;;;3.13;1.80;;;;;;;;;;5053791;28;20476;-60
2022/06/11 14:54:18;;;;;;;3.37;1.27;;;;;;;;;;5053986;28;20502;-59
2022/06/11 14:56:59;;;;;;;2.93;1.30;;;;;;;;;;5053931;28;20455;-60
2022/06/11 14:59:41;;;;;;;4.00;1.83;;;;;;;;;;5053686;28;20476;-59
2022/06/11 15:02:25;;;;;;;2.63;1.67;;;;;;;;;;5051113;28;20498;-59
2022/06/11 15:04:59;;;;;;;3.03;2.07;;;;;;;;;;5032892;28;20536;-59
2022/06/11 15:07:35;;;;;;;1.80;1.50;;;;;;;;;;5053727;28;20532;-59